createdAt,value
2023-02-19T00:01:42.971Z,1.20
2023-02-19T00:04:18.751Z,1.30
2023-02-19T00:06:46.978Z,1.20
2023-02-19T00:09:18.131Z,1.30
2023-02-19T00:11:46.331Z,1.30
2023-02-19T00:14:19.553Z,1.23
2023-02-19T00:16:47.016Z,1.30
2023-02-19T00:19:17.136Z,1.27
2023-02-19T00:21:44.056Z,1.20
2023-02-19T00:24:12.924Z,1.27
2023-02-19T00:26:41.469Z,1.27
2023-02-19T00:29:12.328Z,1.20
2023-02-19T00:31:40.388Z,1.30
2023-02-19T00:34:08.194Z,1.37
2023-02-19T00:36:37.809Z,1.20
2023-02-19T00:39:07.313Z,1.17
2023-02-19T00:41:34.519Z,1.10
2023-02-19T00:44:07.430Z,1.00
2023-02-19T00:46:35.558Z,1.13
2023-02-19T00:49:04.901Z,1.20
2023-02-19T00:51:35.090Z,1.07
2023-02-19T00:54:02.887Z,1.00
2023-02-19T00:56:29.885Z,1.10
2023-02-19T00:58:57.273Z,1.30
2023-02-19T01:01:24.484Z,1.27
2023-02-19T01:03:52.183Z,1.00
2023-02-19T01:06:20.714Z,1.23
2023-02-19T01:08:48.028Z,1.00
2023-02-19T01:11:15.790Z,1.07
2023-02-19T01:13:43.203Z,1.10
2023-02-19T01:16:21.667Z,1.30
2023-02-19T01:18:49.622Z,1.17
2023-02-19T01:21:22.113Z,1.00
2023-02-19T01:23:50.548Z,1.10
2023-02-19T01:26:23.099Z,1.17
2023-02-19T01:28:50.524Z,1.10
2023-02-19T01:31:22.054Z,1.03
2023-02-19T01:33:52.957Z,1.30
2023-02-19T01:36:21.383Z,1.13
2023-02-19T01:38:48.641Z,1.20
2023-02-19T01:41:18.638Z,1.13
2023-02-19T01:44:05.281Z,1.13
2023-02-19T01:46:40.616Z,1.10
2023-02-19T01:49:24.710Z,1.30
2023-02-19T01:52:00.220Z,1.20
2023-02-19T01:54:30.435Z,1.03
2023-02-19T01:56:58.934Z,1.20
2023-02-19T01:59:26.322Z,1.20
2023-02-19T02:01:53.429Z,1.00
2023-02-19T02:04:20.613Z,1.27
2023-02-19T02:06:56.730Z,1.20
2023-02-19T02:09:46.957Z,1.13
2023-02-19T02:12:14.360Z,1.30
2023-02-19T02:14:56.060Z,1.13
2023-02-19T02:17:38.722Z,1.33
2023-02-19T02:20:25.203Z,1.50
2023-02-19T02:23:28.961Z,1.67
2023-02-19T02:26:33.973Z,1.80
2023-02-19T02:29:35.802Z,1.80
2023-02-19T02:32:17.638Z,2.07
2023-02-19T02:34:59.991Z,1.90
2023-02-19T02:37:30.184Z,2.20
2023-02-19T02:39:58.810Z,2.10
2023-02-19T02:42:28.563Z,2.10
2023-02-19T02:45:36.735Z,2.03
2023-02-19T02:48:18.931Z,2.20
2023-02-19T02:51:27.267Z,2.33
2023-02-19T02:54:24.850Z,2.20
2023-02-19T02:56:54.626Z,2.40
2023-02-19T02:59:25.361Z,2.20
2023-02-19T03:02:12.557Z,2.50
2023-02-19T03:05:16.545Z,2.30
2023-02-19T03:08:01.911Z,2.23
2023-02-19T03:10:41.593Z,2.33
2023-02-19T03:13:40.758Z,2.50
2023-02-19T03:16:33.006Z,2.60
2023-02-19T03:19:19.181Z,2.50
2023-02-19T03:22:03.131Z,2.67
2023-02-19T03:24:52.275Z,2.90
2023-02-19T03:27:22.050Z,3.20
2023-02-19T03:29:57.571Z,3.20
2023-02-19T03:32:35.714Z,3.37
2023-02-19T03:35:09.982Z,3.23
2023-02-19T03:38:30.548Z,3.83
2023-02-19T03:41:05.961Z,3.70
2023-02-19T03:44:01.535Z,3.87
2023-02-19T03:46:34.400Z,4.20
2023-02-19T03:49:27.213Z,3.80
2023-02-19T03:52:07.036Z,3.90
2023-02-19T03:54:43.084Z,4.23
2023-02-19T03:57:34.800Z,4.03
2023-02-19T04:00:18.169Z,3.80
2023-02-19T04:02:53.128Z,3.47
2023-02-19T04:05:26.133Z,3.50
2023-02-19T04:07:58.108Z,3.43
2023-02-19T04:10:32.073Z,3.43
2023-02-19T04:13:07.738Z,3.40
2023-02-19T04:15:36.591Z,3.33
2023-02-19T04:18:08.548Z,3.47
2023-02-19T04:20:41.068Z,3.60
2023-02-19T04:23:08.536Z,3.40
2023-02-19T04:25:38.201Z,3.70
2023-02-19T04:28:07.309Z,3.67
2023-02-19T04:30:34.354Z,3.73
2023-02-19T04:33:01.298Z,4.03
2023-02-19T04:35:28.293Z,3.80
2023-02-19T04:37:55.199Z,3.83
2023-02-19T04:40:24.254Z,3.90
2023-02-19T04:42:51.182Z,4.20
2023-02-19T04:45:18.175Z,4.40
2023-02-19T04:47:46.474Z,4.00
2023-02-19T04:50:13.649Z,4.47
2023-02-19T04:52:40.633Z,4.00
2023-02-19T04:55:08.163Z,4.10
2023-02-19T04:57:36.058Z,3.93
2023-02-19T05:00:03.816Z,4.10
2023-02-19T05:02:30.864Z,3.70
2023-02-19T05:04:57.820Z,3.60
2023-02-19T05:07:24.968Z,3.50
2023-02-19T05:09:52.006Z,3.70
2023-02-19T05:12:18.910Z,3.60
2023-02-19T05:14:45.923Z,3.70
2023-02-19T05:17:12.838Z,3.17
2023-02-19T05:19:40.457Z,3.57
2023-02-19T05:22:07.424Z,3.10
2023-02-19T05:24:36.747Z,3.50
2023-02-19T05:27:03.802Z,3.47
2023-02-19T05:29:33.839Z,3.47
2023-02-19T05:32:00.855Z,3.30
2023-02-19T05:34:27.801Z,3.60
2023-02-19T05:36:54.767Z,3.70
2023-02-19T05:39:21.763Z,3.40
2023-02-19T05:41:48.834Z,3.57
2023-02-19T05:44:15.847Z,3.63
2023-02-19T05:46:42.788Z,3.50
2023-02-19T05:49:09.714Z,3.40
2023-02-19T05:51:36.752Z,3.13
2023-02-19T05:54:04.037Z,3.20
2023-02-19T05:56:39.961Z,3.00
2023-02-19T05:59:24.587Z,3.07
2023-02-19T06:01:53.236Z,3.03
2023-02-19T06:04:22.076Z,2.93
2023-02-19T06:06:49.552Z,2.80
2023-02-19T06:09:17.377Z,2.83
2023-02-19T06:11:45.184Z,2.93
2023-02-19T06:14:13.836Z,2.90
2023-02-19T06:16:41.016Z,2.50
2023-02-19T06:19:08.550Z,2.80
2023-02-19T06:21:36.461Z,2.47
2023-02-19T06:24:10.074Z,2.73
2023-02-19T06:26:38.239Z,2.70
2023-02-19T06:29:05.222Z,2.40
2023-02-19T06:31:32.336Z,2.40
2023-02-19T06:33:59.339Z,2.60
2023-02-19T06:36:26.553Z,2.60
2023-02-19T06:38:53.574Z,2.27
2023-02-19T06:41:20.788Z,2.17
2023-02-19T06:43:47.779Z,2.23
2023-02-19T06:46:15.223Z,2.30
2023-02-19T06:48:43.937Z,2.43
2023-02-19T06:51:18.839Z,2.40
2023-02-19T06:53:46.584Z,2.47
2023-02-19T06:56:34.712Z,2.20
2023-02-19T06:59:04.427Z,2.60
2023-02-19T07:01:34.190Z,2.90
2023-02-19T07:04:01.684Z,2.30
2023-02-19T07:06:29.802Z,2.70
2023-02-19T07:08:58.255Z,2.83
2023-02-19T07:11:26.042Z,3.30
2023-02-19T07:14:01.253Z,2.70
2023-02-19T07:16:28.729Z,3.50
2023-02-19T07:19:00.124Z,2.63
2023-02-19T07:21:28.792Z,2.50
2023-02-19T07:23:55.977Z,2.40
2023-02-19T07:26:24.195Z,2.23
2023-02-19T07:28:52.581Z,2.07
2023-02-19T07:31:21.526Z,1.80
2023-02-19T07:33:49.160Z,1.77
2023-02-19T07:36:18.040Z,1.87
2023-02-19T07:38:45.600Z,1.67
2023-02-19T07:41:14.197Z,1.70
2023-02-19T07:43:41.294Z,1.60
2023-02-19T07:46:10.871Z,1.67
2023-02-19T07:48:39.158Z,1.60
2023-02-19T07:51:08.055Z,1.40
2023-02-19T07:53:37.804Z,1.43
2023-02-19T07:56:07.519Z,1.20
2023-02-19T07:58:34.602Z,1.30
2023-02-19T08:01:19.293Z,1.10
2023-02-19T08:03:50.320Z,2.40
2023-02-19T08:06:18.080Z,2.53
2023-02-19T08:08:45.028Z,3.03
2023-02-19T08:11:30.804Z,2.00
2023-02-19T08:13:57.935Z,2.00
2023-02-19T08:16:40.752Z,2.83
2023-02-19T08:19:09.440Z,3.97
2023-02-19T08:21:36.384Z,4.30
2023-02-19T08:24:04.385Z,3.73
2023-02-19T08:26:32.491Z,3.77
2023-02-19T08:28:59.677Z,2.80
2023-02-19T08:31:27.275Z,3.50
2023-02-19T08:33:54.418Z,3.00
2023-02-19T08:36:21.470Z,2.37
2023-02-19T08:38:48.501Z,4.13
2023-02-19T08:41:15.861Z,4.80
2023-02-19T08:43:43.758Z,3.93
2023-02-19T08:46:11.884Z,2.83
2023-02-19T08:48:39.593Z,3.80
2023-02-19T08:51:09.802Z,3.20
2023-02-19T08:53:38.769Z,2.40
2023-02-19T08:56:10.770Z,2.20
2023-02-19T08:58:38.122Z,2.60
2023-02-19T09:01:13.374Z,2.13
2023-02-19T09:03:41.074Z,2.83
2023-02-19T09:06:11.234Z,6.47
2023-02-19T09:08:38.678Z,4.73
2023-02-19T09:11:07.409Z,3.70
2023-02-19T09:13:34.599Z,1.70
2023-02-19T09:16:04.121Z,1.83
2023-02-19T09:18:31.868Z,2.83
2023-02-19T09:21:04.737Z,4.40
2023-02-19T09:23:36.311Z,4.23
2023-02-19T09:26:07.038Z,11.57
2023-02-19T09:28:35.804Z,3.27
2023-02-19T09:31:06.847Z,3.77
2023-02-19T09:33:35.861Z,2.40
2023-02-19T09:36:03.808Z,2.10
2023-02-19T09:38:31.090Z,1.93
2023-02-19T09:41:00.131Z,1.57
2023-02-19T09:43:28.965Z,1.97
2023-02-19T09:46:08.026Z,1.63
2023-02-19T09:48:35.475Z,2.00
2023-02-19T09:51:03.444Z,2.00
2023-02-19T09:53:53.583Z,1.57
2023-02-19T09:56:42.396Z,1.53
2023-02-19T09:59:44.156Z,3.40
2023-02-19T10:02:32.473Z,1.60
2023-02-19T10:05:21.481Z,1.40
2023-02-19T10:08:18.103Z,1.30
2023-02-19T10:11:07.032Z,1.30
2023-02-19T10:14:14.682Z,1.10
2023-02-19T10:17:05.567Z,1.00
2023-02-19T10:19:54.060Z,1.13
2023-02-19T10:22:43.670Z,1.13
2023-02-19T10:25:33.343Z,1.10
2023-02-19T10:28:24.032Z,4.00
2023-02-19T10:31:21.616Z,1.70
2023-02-19T10:34:23.529Z,2.40
2023-02-19T10:37:17.499Z,1.70
2023-02-19T10:40:05.600Z,1.70
2023-02-19T10:43:05.073Z,1.83
2023-02-19T10:45:53.134Z,1.50
2023-02-19T10:48:29.335Z,4.30
2023-02-19T10:51:05.244Z,8.40
2023-02-19T10:54:02.730Z,8.83
2023-02-19T10:56:31.564Z,2.80
2023-02-19T10:59:18.619Z,2.88
2023-02-19T11:01:58.479Z,1.83
2023-02-19T11:04:29.492Z,1.10
2023-02-19T11:06:57.852Z,1.50
2023-02-19T11:09:38.372Z,1.23
2023-02-19T11:12:09.441Z,0.93
2023-02-19T11:14:37.186Z,1.13
2023-02-19T11:17:07.547Z,1.00
2023-02-19T11:19:39.189Z,1.23
2023-02-19T11:22:33.955Z,1.40
2023-02-19T11:25:17.907Z,1.00
2023-02-19T11:27:58.497Z,1.00
2023-02-19T11:30:35.179Z,0.90
2023-02-19T11:33:38.380Z,0.90
2023-02-19T11:36:24.716Z,1.20
2023-02-19T11:38:54.375Z,0.80
2023-02-19T11:41:30.498Z,0.90
2023-02-19T11:44:10.803Z,1.20
2023-02-19T11:46:56.506Z,0.80
2023-02-19T11:50:08.648Z,1.00
2023-02-19T11:52:42.658Z,1.00
2023-02-19T11:55:43.596Z,1.00
2023-02-19T11:58:40.444Z,1.30
2023-02-19T12:01:41.194Z,1.27
2023-02-19T12:04:32.933Z,1.60
2023-02-19T12:07:00.748Z,1.63
2023-02-19T12:09:49.340Z,1.63
2023-02-19T12:13:01.173Z,1.40
2023-02-19T12:16:06.251Z,1.20
2023-02-19T12:18:45.820Z,1.20
2023-02-19T12:21:13.307Z,1.10
2023-02-19T12:24:10.622Z,1.20
2023-02-19T12:26:46.922Z,1.10
2023-02-19T12:29:43.755Z,1.40
2023-02-19T12:33:03.052Z,0.90
2023-02-19T12:35:55.684Z,1.20
2023-02-19T12:38:38.142Z,7.43
2023-02-19T12:41:25.257Z,7.87
2023-02-19T12:43:59.771Z,2.67
2023-02-19T12:46:35.568Z,1.57
2023-02-19T12:49:22.011Z,1.13
2023-02-19T12:51:55.561Z,1.30
2023-02-19T12:54:30.738Z,1.27
2023-02-19T12:57:26.768Z,1.43
2023-02-19T13:00:05.105Z,1.20
2023-02-19T13:02:53.974Z,1.00
2023-02-19T13:05:47.017Z,1.00
2023-02-19T13:08:19.098Z,1.03
2023-02-19T13:10:58.380Z,3.20
2023-02-19T13:13:36.269Z,18.67
2023-02-19T13:16:10.306Z,6.83
2023-02-19T13:18:45.148Z,4.40
2023-02-19T13:21:35.308Z,3.60
2023-02-19T13:24:08.900Z,2.70
2023-02-19T13:26:52.378Z,1.00
2023-02-19T13:30:13.232Z,1.20
2023-02-19T13:33:00.130Z,1.67
2023-02-19T13:35:55.721Z,1.20
2023-02-19T13:38:24.610Z,1.67
2023-02-19T13:41:01.187Z,1.73
2023-02-19T13:43:34.910Z,1.50
2023-02-19T13:46:14.096Z,1.50
2023-02-19T13:48:44.927Z,1.00
2023-02-19T13:51:19.824Z,1.20
2023-02-19T13:53:54.486Z,0.90
2023-02-19T13:56:36.011Z,1.23
2023-02-19T13:59:25.040Z,1.00
2023-02-19T14:01:55.477Z,1.10
2023-02-19T14:05:01.587Z,1.10
2023-02-19T14:07:55.184Z,1.47
2023-02-19T14:11:02.833Z,1.10
2023-02-19T14:13:51.927Z,14.07
2023-02-19T14:16:43.915Z,3.50
2023-02-19T14:19:15.792Z,10.33
2023-02-19T14:21:44.487Z,1.97
2023-02-19T14:24:15.006Z,2.30
2023-02-19T14:26:43.454Z,1.53
2023-02-19T14:29:16.970Z,1.50
2023-02-19T14:31:47.510Z,1.60
2023-02-19T14:34:27.785Z,2.73
2023-02-19T14:37:01.686Z,1.90
2023-02-19T14:39:36.619Z,1.90
2023-02-19T14:42:32.974Z,1.93
2023-02-19T14:45:06.662Z,3.50
2023-02-19T14:47:37.216Z,2.20
2023-02-19T14:50:30.158Z,1.50
2023-02-19T14:53:01.542Z,1.67
2023-02-19T14:55:36.571Z,2.40
2023-02-19T14:58:15.581Z,1.80
2023-02-19T15:00:44.117Z,3.00
2023-02-19T15:03:51.342Z,2.70
2023-02-19T15:06:20.294Z,2.50
2023-02-19T15:08:58.217Z,2.50
2023-02-19T15:11:29.982Z,2.27
2023-02-19T15:14:06.492Z,2.20
2023-02-19T15:16:38.928Z,2.40
2023-02-19T15:19:10.827Z,3.40
2023-02-19T15:21:43.860Z,3.00
2023-02-19T15:24:15.245Z,4.47
2023-02-19T15:26:48.325Z,2.80
2023-02-19T15:29:19.260Z,1.90
2023-02-19T15:31:57.999Z,1.90
2023-02-19T15:34:31.863Z,2.27
2023-02-19T15:37:06.292Z,2.40
2023-02-19T15:39:59.911Z,3.10
2023-02-19T15:42:33.764Z,3.33
2023-02-19T15:45:23.605Z,2.73
2023-02-19T15:48:03.793Z,2.77
2023-02-19T15:50:37.313Z,2.33
2023-02-19T15:53:28.284Z,2.83
2023-02-19T15:56:08.400Z,2.13
2023-02-19T15:58:41.011Z,1.90
2023-02-19T16:01:23.634Z,1.30
2023-02-19T16:03:54.565Z,1.50
2023-02-19T16:06:24.705Z,1.40
2023-02-19T16:08:55.669Z,1.37
2023-02-19T16:11:30.898Z,1.93
2023-02-19T16:14:34.317Z,2.70
2023-02-19T16:17:11.268Z,2.80
2023-02-19T16:19:57.920Z,1.97
2023-02-19T16:22:30.093Z,1.00
2023-02-19T16:25:06.550Z,1.20
2023-02-19T16:27:41.234Z,1.40
2023-02-19T16:30:18.369Z,1.20
2023-02-19T16:32:47.424Z,1.80
2023-02-19T16:35:40.678Z,1.83
2023-02-19T16:38:17.511Z,2.77
2023-02-19T16:40:52.136Z,3.30
2023-02-19T16:43:40.523Z,3.80
2023-02-19T16:46:12.250Z,3.13
2023-02-19T16:48:41.731Z,3.13
2023-02-19T16:51:13.878Z,2.20
2023-02-19T16:53:42.239Z,1.60
2023-02-19T16:56:22.923Z,1.90
2023-02-19T16:58:51.672Z,2.00
2023-02-19T17:01:19.478Z,1.70
2023-02-19T17:03:49.262Z,1.80
2023-02-19T17:06:19.418Z,1.80
2023-02-19T17:08:47.783Z,1.57
2023-02-19T17:11:17.899Z,1.50
2023-02-19T17:13:47.742Z,1.70
2023-02-19T17:16:28.106Z,1.80
2023-02-19T17:18:57.074Z,1.90
2023-02-19T17:21:30.900Z,2.50
2023-02-19T17:24:00.240Z,1.80
2023-02-19T17:26:29.948Z,1.63
2023-02-19T17:28:58.812Z,1.60
2023-02-19T17:31:26.958Z,1.53
2023-02-19T17:33:55.201Z,1.60
2023-02-19T17:36:33.124Z,1.40
2023-02-19T17:39:04.920Z,1.60
2023-02-19T17:41:35.105Z,1.60
2023-02-19T17:44:04.815Z,1.70
2023-02-19T17:46:37.317Z,1.50
2023-02-19T17:49:08.227Z,1.70
2023-02-19T17:51:36.730Z,1.80
2023-02-19T17:54:06.341Z,1.63
2023-02-19T17:56:37.590Z,1.80
2023-02-19T17:59:05.869Z,1.77
2023-02-19T18:01:36.742Z,2.00
2023-02-19T18:04:06.668Z,1.50
2023-02-19T18:06:36.509Z,1.93
2023-02-19T18:09:05.515Z,1.90
2023-02-19T18:11:33.390Z,2.00
2023-02-19T18:14:03.807Z,1.50
2023-02-19T18:16:35.652Z,1.70
2023-02-19T18:19:05.122Z,1.77
2023-02-19T18:21:36.394Z,1.60
2023-02-19T18:24:08.767Z,1.80
2023-02-19T18:26:37.032Z,1.70
2023-02-19T18:29:06.818Z,2.10
2023-02-19T18:31:40.777Z,2.00
2023-02-19T18:34:19.967Z,2.03
2023-02-19T18:36:49.413Z,2.40
2023-02-19T18:39:20.656Z,2.63
2023-02-19T18:41:51.964Z,2.97
2023-02-19T18:44:25.766Z,2.50
2023-02-19T18:46:54.418Z,2.63
2023-02-19T18:49:22.098Z,2.97
2023-02-19T18:51:50.616Z,3.37
2023-02-19T18:54:27.022Z,3.50
2023-02-19T18:56:56.213Z,3.80
2023-02-19T18:59:24.993Z,3.70
2023-02-19T19:01:54.857Z,3.10
2023-02-19T19:04:24.431Z,3.60
2023-02-19T19:06:53.713Z,3.50
2023-02-19T19:09:21.557Z,3.20
2023-02-19T19:11:51.112Z,3.37
2023-02-19T19:14:19.028Z,3.10
2023-02-19T19:16:46.763Z,3.03
2023-02-19T19:19:16.200Z,3.00
2023-02-19T19:21:48.755Z,3.00
2023-02-19T19:24:17.228Z,3.60
2023-02-19T19:26:50.331Z,3.27
2023-02-19T19:29:22.993Z,3.20
2023-02-19T19:31:51.414Z,2.40
2023-02-19T19:34:19.885Z,2.37
2023-02-19T19:36:48.165Z,2.20
2023-02-19T19:39:17.717Z,1.80
2023-02-19T19:41:49.412Z,2.40
2023-02-19T19:44:28.841Z,2.50
2023-02-19T19:47:01.369Z,5.00
2023-02-19T19:49:29.386Z,5.43
2023-02-19T19:52:01.644Z,6.33
2023-02-19T19:54:31.395Z,6.90
2023-02-19T19:57:02.137Z,5.10
2023-02-19T19:59:33.554Z,3.90
2023-02-19T20:02:04.135Z,3.47
2023-02-19T20:04:33.229Z,4.80
2023-02-19T20:07:01.493Z,4.30
2023-02-19T20:09:30.984Z,4.73
2023-02-19T20:12:01.652Z,5.10
2023-02-19T20:14:29.621Z,3.80
2023-02-19T20:16:57.486Z,6.60
2023-02-19T20:19:25.994Z,3.87
2023-02-19T20:21:56.182Z,2.70
2023-02-19T20:24:26.979Z,3.40
2023-02-19T20:27:00.880Z,3.97
2023-02-19T20:29:32.029Z,5.40
2023-02-19T20:32:03.128Z,3.60
2023-02-19T20:34:33.029Z,2.70
2023-02-19T20:37:03.576Z,2.30
2023-02-19T20:39:33.230Z,2.10
2023-02-19T20:42:02.732Z,2.10
2023-02-19T20:44:32.629Z,2.90
2023-02-19T20:47:01.727Z,2.67
2023-02-19T20:49:35.260Z,2.90
2023-02-19T20:52:09.882Z,3.00
2023-02-19T20:54:42.131Z,3.00
2023-02-19T20:57:10.853Z,2.40
2023-02-19T20:59:47.627Z,2.30
2023-02-19T21:02:22.333Z,2.00
2023-02-19T21:04:53.058Z,1.70
2023-02-19T21:07:20.945Z,1.60
2023-02-19T21:09:50.434Z,1.60
2023-02-19T21:12:20.392Z,1.60
2023-02-19T21:14:50.053Z,1.83
2023-02-19T21:17:18.786Z,2.37
2023-02-19T21:19:50.045Z,2.40
2023-02-19T21:22:18.484Z,2.40
2023-02-19T21:24:49.970Z,2.60
2023-02-19T21:27:18.831Z,3.17
2023-02-19T21:29:48.578Z,3.10
2023-02-19T21:32:16.422Z,3.40
2023-02-19T21:34:44.662Z,3.70
2023-02-19T21:37:11.981Z,3.90
2023-02-19T21:39:39.502Z,3.77
2023-02-19T21:42:06.791Z,3.93
2023-02-19T21:44:35.612Z,4.00
2023-02-19T21:47:04.316Z,4.50
2023-02-19T21:49:31.944Z,4.03
2023-02-19T21:51:59.342Z,3.93
2023-02-19T21:54:26.792Z,4.30
2023-02-19T21:56:54.824Z,4.17
2023-02-19T21:59:25.105Z,4.50
2023-02-19T22:01:54.108Z,4.50
2023-02-19T22:04:24.540Z,4.27
2023-02-19T22:06:55.474Z,4.47
2023-02-19T22:09:22.843Z,4.50
2023-02-19T22:11:50.422Z,4.60
2023-02-19T22:14:17.751Z,4.20
2023-02-19T22:16:44.885Z,4.40
2023-02-19T22:19:12.892Z,4.37
2023-02-19T22:21:44.079Z,4.57
2023-02-19T22:24:17.101Z,5.10
2023-02-19T22:26:45.010Z,4.60
2023-02-19T22:29:14.425Z,4.70
2023-02-19T22:31:41.814Z,4.90
2023-02-19T22:34:09.874Z,5.00
2023-02-19T22:36:40.514Z,5.17
2023-02-19T22:39:16.112Z,4.80
2023-02-19T22:41:43.720Z,5.40
2023-02-19T22:44:11.477Z,5.57
2023-02-19T22:46:38.593Z,5.40
2023-02-19T22:49:07.334Z,5.67
2023-02-19T22:51:38.326Z,5.47
2023-02-19T22:54:05.365Z,5.70
2023-02-19T22:56:32.460Z,6.00
2023-02-19T22:58:59.515Z,6.00
2023-02-19T23:01:26.606Z,5.80
2023-02-19T23:04:12.940Z,6.10
2023-02-19T23:06:42.773Z,5.77
2023-02-19T23:09:16.495Z,5.87
2023-02-19T23:11:44.443Z,6.00
2023-02-19T23:14:13.119Z,6.20
2023-02-19T23:16:40.156Z,5.70
2023-02-19T23:19:11.482Z,5.70
2023-02-19T23:21:40.385Z,5.47
2023-02-19T23:24:07.891Z,5.33
2023-02-19T23:26:35.868Z,5.30
2023-02-19T23:29:03.402Z,5.30
2023-02-19T23:31:30.564Z,4.80
2023-02-19T23:33:58.994Z,4.90
2023-02-19T23:36:26.210Z,4.90
2023-02-19T23:38:53.440Z,5.33
2023-02-19T23:41:20.447Z,5.03
2023-02-19T23:43:47.429Z,5.00
2023-02-19T23:46:17.504Z,4.53
2023-02-19T23:48:47.156Z,4.60
2023-02-19T23:51:15.426Z,4.67
2023-02-19T23:53:42.394Z,4.80
2023-02-19T23:56:11.087Z,4.47
2023-02-19T23:58:38.731Z,4.70
